createdAt,value
2017-03-01T00:00:04.628Z,0
2017-03-01T00:01:14.498Z,0
2017-03-01T00:02:24.347Z,0
2017-03-01T00:03:33.837Z,0
2017-03-01T00:04:44.469Z,0
2017-03-01T00:05:53.566Z,0
2017-03-01T00:07:03.067Z,0
2017-03-01T00:08:12.171Z,0
2017-03-01T00:09:21.251Z,0
2017-03-01T00:10:31.117Z,0
2017-03-01T00:11:40.583Z,0
2017-03-01T00:12:50.058Z,0
2017-03-01T00:13:59.535Z,0
2017-03-01T00:15:09.014Z,0
2017-03-01T00:16:19.260Z,0
2017-03-01T00:17:27.967Z,0
2017-03-01T00:18:37.437Z,0
2017-03-01T00:19:47.718Z,0
2017-03-01T00:20:57.576Z,0
2017-03-01T00:22:07.434Z,0
2017-03-01T00:23:17.303Z,0
2017-03-01T00:24:26.377Z,0
2017-03-01T00:25:35.841Z,0
2017-03-01T00:26:45.317Z,0
2017-03-01T00:27:55.170Z,0
2017-03-01T00:29:04.642Z,0
2017-03-01T00:30:13.731Z,0
2017-03-01T00:31:23.580Z,0
2017-03-01T00:32:33.049Z,0
2017-03-01T00:33:43.268Z,0
2017-03-01T00:34:52.734Z,0
2017-03-01T00:36:02.205Z,0
2017-03-01T00:37:12.441Z,0
2017-03-01T00:38:21.527Z,0
2017-03-01T00:39:31.370Z,0
2017-03-01T00:40:40.830Z,0
2017-03-01T00:41:49.904Z,0
2017-03-01T00:43:00.025Z,0
2017-03-01T00:44:09.512Z,0
2017-03-01T00:45:19.361Z,0
2017-03-01T00:46:29.592Z,0
2017-03-01T00:47:38.286Z,0
2017-03-01T00:48:47.365Z,0
2017-03-01T00:49:57.213Z,0
2017-03-01T00:51:07.090Z,0
2017-03-01T00:52:16.557Z,0
2017-03-01T00:53:26.413Z,0
2017-03-01T00:54:35.866Z,0
2017-03-01T00:55:44.574Z,0
2017-03-01T00:56:54.030Z,0
2017-03-01T00:58:03.911Z,0
2017-03-01T00:59:12.623Z,0
2017-03-01T01:00:22.105Z,0
2017-03-01T01:01:31.949Z,0
2017-03-01T01:02:41.032Z,0
2017-03-01T01:03:50.496Z,0
2017-03-01T01:05:00.349Z,0
2017-03-01T01:06:10.592Z,0
2017-03-01T01:07:19.669Z,0
2017-03-01T01:08:29.538Z,0
2017-03-01T01:09:39.392Z,0
2017-03-01T01:10:49.238Z,0
2017-03-01T01:11:58.704Z,0
2017-03-01T01:13:08.166Z,0
2017-03-01T01:14:17.637Z,0
2017-03-01T01:15:27.090Z,0
2017-03-01T01:16:36.941Z,0
2017-03-01T01:17:46.814Z,0
2017-03-01T01:18:56.267Z,0
2017-03-01T01:20:06.115Z,0
2017-03-01T01:21:14.826Z,0
2017-03-01T01:22:24.681Z,0
2017-03-01T01:23:33.755Z,0
2017-03-01T01:24:43.641Z,0
2017-03-01T01:25:52.373Z,0
2017-03-01T01:27:01.855Z,0
2017-03-01T01:28:11.705Z,0
2017-03-01T01:29:21.936Z,0
2017-03-01T01:30:31.027Z,0
2017-03-01T01:31:40.491Z,0
2017-03-01T01:32:50.373Z,0
2017-03-01T01:34:00.256Z,0
2017-03-01T01:35:10.520Z,0
2017-03-01T01:36:20.374Z,0
2017-03-01T01:37:29.081Z,0
2017-03-01T01:38:38.165Z,0
2017-03-01T01:39:48.379Z,0
2017-03-01T01:40:57.479Z,0
2017-03-01T01:42:06.188Z,0
2017-03-01T01:43:15.279Z,0
2017-03-01T01:44:25.528Z,0
2017-03-01T01:45:34.263Z,0
2017-03-01T01:46:44.112Z,0
2017-03-01T01:47:53.991Z,0
2017-03-01T01:49:03.854Z,0
2017-03-01T01:50:14.087Z,0
2017-03-01T01:51:23.952Z,0
2017-03-01T01:52:33.047Z,0
2017-03-01T01:53:42.521Z,0
2017-03-01T01:54:51.629Z,0
2017-03-01T01:56:01.083Z,0
2017-03-01T01:57:10.192Z,0
2017-03-01T01:58:19.657Z,0
2017-03-01T01:59:29.124Z,0
2017-03-01T02:00:38.953Z,0
2017-03-01T02:01:48.825Z,0
2017-03-01T02:02:58.661Z,0
2017-03-01T02:04:08.504Z,0
2017-03-01T02:05:17.610Z,0
2017-03-01T02:06:27.103Z,0
2017-03-01T02:07:36.973Z,0
2017-03-01T02:08:47.211Z,0
2017-03-01T02:09:56.689Z,0
2017-03-01T02:11:06.156Z,0
2017-03-01T02:12:15.630Z,0
2017-03-01T02:13:25.094Z,0
2017-03-01T02:14:34.940Z,0
2017-03-01T02:15:44.029Z,0
2017-03-01T02:16:52.728Z,0
2017-03-01T02:18:02.225Z,0
2017-03-01T02:19:11.701Z,0
2017-03-01T02:20:21.583Z,0
2017-03-01T02:21:30.692Z,0
2017-03-01T02:22:40.549Z,0
2017-03-01T02:23:50.026Z,0
2017-03-01T02:24:59.875Z,0
2017-03-01T02:26:09.713Z,0
2017-03-01T02:27:19.952Z,0
2017-03-01T02:28:29.444Z,0
2017-03-01T02:29:39.299Z,0
2017-03-01T02:30:48.773Z,0
2017-03-01T02:31:58.250Z,0
2017-03-01T02:33:07.702Z,0
2017-03-01T02:34:16.398Z,0
2017-03-01T02:35:26.649Z,0
2017-03-01T02:36:36.111Z,0
2017-03-01T02:37:45.195Z,0
2017-03-01T02:38:55.057Z,0
2017-03-01T02:40:04.540Z,0
2017-03-01T02:41:14.026Z,0
2017-03-01T02:42:23.866Z,0
2017-03-01T02:43:34.112Z,0
2017-03-01T02:44:44.351Z,0
2017-03-01T02:45:53.825Z,0
2017-03-01T02:47:04.049Z,0
2017-03-01T02:48:14.287Z,0
2017-03-01T02:49:23.757Z,0
2017-03-01T02:50:33.225Z,0
2017-03-01T02:51:43.073Z,0
2017-03-01T02:52:52.168Z,0
2017-03-01T02:54:01.237Z,0
2017-03-01T02:55:10.737Z,0
2017-03-01T02:56:20.586Z,0
2017-03-01T02:57:29.669Z,0
2017-03-01T02:58:39.551Z,0
2017-03-01T02:59:49.436Z,0
2017-03-01T03:00:59.325Z,0
2017-03-01T03:02:09.178Z,0
2017-03-01T03:03:18.634Z,0
2017-03-01T03:04:27.729Z,0
2017-03-01T03:05:37.183Z,0
2017-03-01T03:06:47.427Z,0
2017-03-01T03:07:58.066Z,0
2017-03-01T03:09:07.922Z,0
2017-03-01T03:10:17.402Z,0
2017-03-01T03:11:26.104Z,0
2017-03-01T03:12:35.219Z,0
2017-03-01T03:13:45.502Z,0
2017-03-01T03:14:54.969Z,0
2017-03-01T03:16:04.045Z,0
2017-03-01T03:17:13.897Z,0
2017-03-01T03:18:23.358Z,0
2017-03-01T03:19:32.843Z,0
2017-03-01T03:20:42.713Z,0
2017-03-01T03:21:51.820Z,0
2017-03-01T03:23:01.317Z,0
2017-03-01T03:24:11.191Z,0
2017-03-01T03:25:20.278Z,0
2017-03-01T03:26:30.898Z,0
2017-03-01T03:27:40.749Z,0
2017-03-01T03:28:50.242Z,0
2017-03-01T03:30:00.147Z,0
2017-03-01T03:31:09.613Z,0
2017-03-01T03:32:19.092Z,0
2017-03-01T03:33:28.583Z,0
2017-03-01T03:34:38.431Z,0
2017-03-01T03:35:48.802Z,0
2017-03-01T03:36:58.366Z,0
2017-03-01T03:38:07.888Z,0
2017-03-01T03:39:16.580Z,0
2017-03-01T03:40:25.294Z,0
2017-03-01T03:41:35.159Z,0
2017-03-01T03:42:44.302Z,0
2017-03-01T03:43:53.823Z,0
2017-03-01T03:45:03.306Z,0
2017-03-01T03:46:12.771Z,0
2017-03-01T03:47:22.255Z,0
2017-03-01T03:48:32.497Z,0
2017-03-01T03:49:42.724Z,0
2017-03-01T03:50:52.568Z,0
2017-03-01T03:52:02.435Z,0
2017-03-01T03:53:11.906Z,0
2017-03-01T03:54:21.006Z,0
2017-03-01T03:55:30.119Z,0
2017-03-01T03:56:39.614Z,0
2017-03-01T03:57:49.481Z,0
2017-03-01T03:58:59.754Z,0
2017-03-01T04:00:09.231Z,0
2017-03-01T04:01:18.331Z,0
2017-03-01T04:02:28.209Z,0
2017-03-01T04:03:37.293Z,0
2017-03-01T04:04:46.771Z,0
2017-03-01T04:05:56.684Z,0
2017-03-01T04:07:06.175Z,0
2017-03-01T04:08:15.677Z,0
2017-03-01T04:09:24.759Z,0
2017-03-01T04:10:34.605Z,0
2017-03-01T04:11:44.093Z,0
2017-03-01T04:12:54.374Z,0
2017-03-01T04:14:03.892Z,0
2017-03-01T04:15:13.390Z,0
2017-03-01T04:16:22.492Z,0
2017-03-01T04:17:31.967Z,0
2017-03-01T04:18:41.442Z,0
2017-03-01T04:19:51.716Z,0
2017-03-01T04:21:01.189Z,0
2017-03-01T04:22:10.707Z,0
2017-03-01T04:23:20.204Z,0
2017-03-01T04:24:29.709Z,0
2017-03-01T04:25:39.174Z,0
2017-03-01T04:26:48.673Z,0
2017-03-01T04:27:58.540Z,0
2017-03-01T04:29:08.787Z,0
2017-03-01T04:30:18.250Z,0
2017-03-01T04:31:28.138Z,0
2017-03-01T04:32:37.612Z,0
2017-03-01T04:33:47.113Z,0
2017-03-01T04:34:56.740Z,0
2017-03-01T04:36:06.212Z,0
2017-03-01T04:37:15.334Z,0
2017-03-01T04:38:24.449Z,0
2017-03-01T04:39:34.309Z,0
2017-03-01T04:40:43.787Z,0
2017-03-01T04:41:53.278Z,0
2017-03-01T04:43:03.518Z,0
2017-03-01T04:44:12.624Z,0
2017-03-01T04:45:22.526Z,0
2017-03-01T04:46:32.018Z,0
2017-03-01T04:47:41.501Z,0
2017-03-01T04:48:50.992Z,0
2017-03-01T04:50:00.082Z,0
2017-03-01T04:51:09.562Z,0
2017-03-01T04:52:19.426Z,0
2017-03-01T04:53:28.921Z,0
2017-03-01T04:54:38.390Z,0
2017-03-01T04:55:47.493Z,0
2017-03-01T04:56:56.982Z,0
2017-03-01T04:58:06.481Z,0
2017-03-01T04:59:16.702Z,0
2017-03-01T05:00:26.174Z,0
2017-03-01T05:01:35.653Z,0
2017-03-01T05:02:45.123Z,0
2017-03-01T05:03:54.604Z,0
2017-03-01T05:05:04.104Z,0
2017-03-01T05:06:13.571Z,0
2017-03-01T05:07:23.820Z,0
2017-03-01T05:08:34.060Z,0
2017-03-01T05:09:43.964Z,0
2017-03-01T05:10:53.498Z,0
2017-03-01T05:12:03.374Z,0
2017-03-01T05:13:13.620Z,0
2017-03-01T05:14:24.289Z,0
2017-03-01T05:15:33.394Z,0
2017-03-01T05:16:42.521Z,0
2017-03-01T05:17:52.052Z,0
2017-03-01T05:19:01.929Z,0
2017-03-01T05:20:11.476Z,0
2017-03-01T05:21:21.367Z,0
2017-03-01T05:22:30.827Z,0
2017-03-01T05:23:40.341Z,0
2017-03-01T05:24:50.613Z,0
2017-03-01T05:26:00.092Z,0
2017-03-01T05:27:09.967Z,0
2017-03-01T05:28:19.080Z,0
2017-03-01T05:29:28.548Z,0
2017-03-01T05:30:38.812Z,0
2017-03-01T05:31:47.929Z,0
2017-03-01T05:32:57.827Z,0
2017-03-01T05:34:07.768Z,0
2017-03-01T05:35:17.333Z,0
2017-03-01T05:36:26.558Z,0
2017-03-01T05:37:36.199Z,0
2017-03-01T05:38:45.717Z,0
2017-03-01T05:39:55.341Z,0
2017-03-01T05:41:05.199Z,0
2017-03-01T05:42:15.177Z,0
2017-03-01T05:43:25.035Z,0
2017-03-01T05:44:34.165Z,0
2017-03-01T05:45:44.040Z,0
2017-03-01T05:46:53.972Z,0
2017-03-01T05:48:04.252Z,0
2017-03-01T05:49:14.147Z,0
2017-03-01T05:50:23.268Z,0
2017-03-01T05:51:33.170Z,0
2017-03-01T05:52:41.872Z,0
2017-03-01T05:53:51.362Z,0
2017-03-01T05:55:00.083Z,0
2017-03-01T05:56:09.175Z,0
2017-03-01T05:57:17.901Z,0
2017-03-01T05:58:27.742Z,0
2017-03-01T05:59:37.203Z,0
2017-03-01T06:00:46.284Z,0
2017-03-01T06:01:55.749Z,0
2017-03-01T06:03:06.011Z,0
2017-03-01T06:04:16.261Z,0
2017-03-01T06:05:26.137Z,0
2017-03-01T06:06:35.209Z,0
2017-03-01T06:07:44.693Z,0
2017-03-01T06:08:54.161Z,0
2017-03-01T06:10:03.708Z,0
2017-03-01T06:11:13.296Z,0
2017-03-01T06:12:23.578Z,5
2017-03-01T06:13:33.066Z,5
2017-03-01T06:14:42.927Z,5
2017-03-01T06:15:52.415Z,5
2017-03-01T06:17:02.276Z,5
2017-03-01T06:18:12.193Z,5
2017-03-01T06:19:22.095Z,5
2017-03-01T06:20:31.548Z,5
2017-03-01T06:21:41.400Z,10
2017-03-01T06:22:51.255Z,10
2017-03-01T06:24:00.731Z,10
2017-03-01T06:25:10.596Z,15
2017-03-01T06:26:20.059Z,15
2017-03-01T06:27:29.918Z,15
2017-03-01T06:28:39.030Z,15
2017-03-01T06:29:49.275Z,15
2017-03-01T06:30:59.114Z,15
2017-03-01T06:32:08.588Z,20
2017-03-01T06:33:18.430Z,25
2017-03-01T06:34:27.530Z,20
2017-03-01T06:35:38.148Z,20
2017-03-01T06:36:47.611Z,30
2017-03-01T06:37:56.299Z,35
2017-03-01T06:39:06.168Z,30
2017-03-01T06:40:16.038Z,30
2017-03-01T06:41:25.489Z,35
2017-03-01T06:42:34.969Z,35
2017-03-01T06:43:45.610Z,35
2017-03-01T06:44:54.689Z,40
2017-03-01T06:46:04.543Z,40
2017-03-01T06:47:13.257Z,45
2017-03-01T06:48:23.499Z,45
2017-03-01T06:49:33.345Z,45
2017-03-01T06:50:42.817Z,45
2017-03-01T06:51:52.290Z,45
2017-03-01T06:53:01.370Z,55
2017-03-01T06:54:11.236Z,65
2017-03-01T06:55:20.693Z,75
2017-03-01T06:56:30.150Z,85
2017-03-01T06:57:39.234Z,80
2017-03-01T06:58:49.073Z,85
2017-03-01T06:59:59.307Z,90
2017-03-01T07:01:09.172Z,80
2017-03-01T07:02:19.399Z,80
2017-03-01T07:03:28.886Z,75
2017-03-01T07:04:37.609Z,75
2017-03-01T07:05:47.463Z,75
2017-03-01T07:06:57.326Z,80
2017-03-01T07:08:06.812Z,85
2017-03-01T07:09:16.664Z,90
2017-03-01T07:10:26.143Z,95
2017-03-01T07:11:35.615Z,110
2017-03-01T07:12:44.710Z,125
2017-03-01T07:13:54.950Z,160
2017-03-01T07:15:04.825Z,145
2017-03-01T07:16:14.277Z,125
2017-03-01T07:17:23.740Z,130
2017-03-01T07:18:33.225Z,125
2017-03-01T07:19:43.068Z,145
2017-03-01T07:20:52.535Z,155
2017-03-01T07:22:02.389Z,180
2017-03-01T07:23:12.644Z,170
2017-03-01T07:24:22.868Z,185
2017-03-01T07:25:33.119Z,190
2017-03-01T07:26:42.204Z,210
2017-03-01T07:27:51.670Z,220
2017-03-01T07:29:01.144Z,235
2017-03-01T07:30:11.013Z,235
2017-03-01T07:31:20.481Z,235
2017-03-01T07:32:29.952Z,220
2017-03-01T07:33:39.416Z,245
2017-03-01T07:34:49.261Z,245
2017-03-01T07:35:58.374Z,240
2017-03-01T07:37:08.222Z,215
2017-03-01T07:38:17.708Z,210
2017-03-01T07:39:27.575Z,215
2017-03-01T07:40:37.094Z,210
2017-03-01T07:41:46.928Z,220
2017-03-01T07:42:57.158Z,205
2017-03-01T07:44:06.239Z,150
2017-03-01T07:45:16.137Z,165
2017-03-01T07:46:25.598Z,170
2017-03-01T07:47:35.450Z,180
2017-03-01T07:48:45.030Z,160
2017-03-01T07:49:54.524Z,135
2017-03-01T07:51:03.605Z,155
2017-03-01T07:52:13.466Z,170
2017-03-01T07:53:22.541Z,190
2017-03-01T07:54:31.268Z,180
2017-03-01T07:55:40.727Z,170
2017-03-01T07:56:49.797Z,205
2017-03-01T07:57:59.269Z,230
2017-03-01T07:59:09.142Z,255
2017-03-01T08:00:18.646Z,295
2017-03-01T08:01:28.137Z,320
2017-03-01T08:02:36.833Z,340
2017-03-01T08:03:46.357Z,335
2017-03-01T08:04:55.474Z,295
2017-03-01T08:06:04.576Z,270
2017-03-01T08:07:14.452Z,255
2017-03-01T08:08:23.551Z,265
2017-03-01T08:09:33.399Z,315
2017-03-01T08:10:42.516Z,280
2017-03-01T08:11:51.606Z,250
2017-03-01T08:13:01.469Z,260
2017-03-01T08:14:10.928Z,315
2017-03-01T08:15:20.437Z,330
2017-03-01T08:16:29.540Z,330
2017-03-01T08:17:39.829Z,330
2017-03-01T08:18:49.294Z,340
2017-03-01T08:19:58.452Z,425
2017-03-01T08:21:09.211Z,355
2017-03-01T08:22:18.342Z,345
2017-03-01T08:23:27.814Z,345
2017-03-01T08:24:38.100Z,425
2017-03-01T08:25:46.836Z,370
2017-03-01T08:26:56.722Z,335
2017-03-01T08:28:05.821Z,250
2017-03-01T08:29:14.568Z,240
2017-03-01T08:30:24.079Z,305
2017-03-01T08:31:33.950Z,405
2017-03-01T08:32:43.532Z,430
2017-03-01T08:33:52.636Z,540
2017-03-01T08:35:01.730Z,535
2017-03-01T08:36:10.462Z,340
2017-03-01T08:37:19.190Z,310
2017-03-01T08:38:28.690Z,315
2017-03-01T08:39:38.551Z,385
2017-03-01T08:40:48.059Z,490
2017-03-01T08:41:57.640Z,465
2017-03-01T08:43:07.140Z,445
2017-03-01T08:44:17.041Z,420
2017-03-01T08:45:26.931Z,425
2017-03-01T08:46:36.007Z,420
2017-03-01T08:47:45.124Z,380
2017-03-01T08:48:54.996Z,340
2017-03-01T08:50:05.242Z,355
2017-03-01T08:51:15.084Z,330
2017-03-01T08:52:25.736Z,305
2017-03-01T08:53:35.996Z,265
2017-03-01T08:54:46.301Z,280
2017-03-01T08:55:56.536Z,305
2017-03-01T08:57:06.068Z,420
2017-03-01T08:58:15.570Z,465
2017-03-01T08:59:25.450Z,425
2017-03-01T09:00:34.950Z,440
2017-03-01T09:01:44.443Z,495
2017-03-01T09:02:54.678Z,540
2017-03-01T09:04:03.781Z,535
2017-03-01T09:05:13.244Z,560
2017-03-01T09:06:23.274Z,520
2017-03-01T09:07:32.425Z,470
2017-03-01T09:08:41.917Z,445
2017-03-01T09:09:52.202Z,460
2017-03-01T09:11:01.709Z,455
2017-03-01T09:12:12.017Z,535
2017-03-01T09:13:21.539Z,675
2017-03-01T09:14:32.164Z,730
2017-03-01T09:15:42.509Z,595
2017-03-01T09:16:51.983Z,685
2017-03-01T09:18:01.459Z,1265
2017-03-01T09:19:11.703Z,1310
2017-03-01T09:20:21.217Z,570
2017-03-01T09:21:30.732Z,675
2017-03-01T09:22:40.230Z,545
2017-03-01T09:23:49.724Z,505
2017-03-01T09:24:58.822Z,505
2017-03-01T09:26:08.298Z,405
2017-03-01T09:27:17.775Z,415
2017-03-01T09:28:28.082Z,490
2017-03-01T09:29:38.374Z,445
2017-03-01T09:30:47.876Z,370
2017-03-01T09:31:57.399Z,270
2017-03-01T09:33:07.679Z,305
2017-03-01T09:34:17.211Z,355
2017-03-01T09:35:26.297Z,425
2017-03-01T09:36:35.814Z,385
2017-03-01T09:37:44.971Z,420
2017-03-01T09:38:54.536Z,420
2017-03-01T09:40:04.796Z,355
2017-03-01T09:41:14.325Z,205
2017-03-01T09:42:24.402Z,190
2017-03-01T09:43:33.623Z,205
2017-03-01T09:44:43.495Z,300
2017-03-01T09:45:52.612Z,350
2017-03-01T09:47:02.218Z,515
2017-03-01T09:48:12.097Z,380
2017-03-01T09:49:21.190Z,305
2017-03-01T09:50:31.088Z,335
2017-03-01T09:51:39.786Z,380
2017-03-01T09:52:49.264Z,390
2017-03-01T09:53:58.810Z,450
2017-03-01T09:55:07.930Z,495
2017-03-01T09:56:17.785Z,535
2017-03-01T09:57:28.031Z,550
2017-03-01T09:58:37.170Z,600
2017-03-01T09:59:46.338Z,605
2017-03-01T10:00:55.449Z,530
2017-03-01T10:02:05.331Z,505
2017-03-01T10:03:14.835Z,530
2017-03-01T10:04:23.958Z,615
2017-03-01T10:05:33.431Z,1470
2017-03-01T10:06:42.227Z,1505
2017-03-01T10:07:51.353Z,855
2017-03-01T10:09:01.216Z,720
2017-03-01T10:10:11.084Z,750
2017-03-01T10:11:20.640Z,745
2017-03-01T10:12:29.882Z,1005
2017-03-01T10:13:40.179Z,745
2017-03-01T10:14:49.706Z,1190
2017-03-01T10:15:58.813Z,755
2017-03-01T10:17:08.306Z,1530
2017-03-01T10:18:17.796Z,720
2017-03-01T10:19:27.659Z,615
2017-03-01T10:20:37.130Z,475
2017-03-01T10:21:47.366Z,380
2017-03-01T10:22:57.232Z,450
2017-03-01T10:24:07.092Z,520
2017-03-01T10:25:16.580Z,615
2017-03-01T10:26:26.059Z,635
2017-03-01T10:27:35.912Z,495
2017-03-01T10:28:45.389Z,560
2017-03-01T10:29:55.263Z,415
2017-03-01T10:31:05.119Z,410
2017-03-01T10:32:14.241Z,1500
2017-03-01T10:33:23.336Z,690
2017-03-01T10:34:32.431Z,1405
2017-03-01T10:35:42.280Z,590
2017-03-01T10:36:51.373Z,1800
2017-03-01T10:38:01.214Z,810
2017-03-01T10:39:10.307Z,1985
2017-03-01T10:40:19.785Z,2095
2017-03-01T10:41:29.243Z,1935
2017-03-01T10:42:38.356Z,1185
2017-03-01T10:43:47.455Z,460
2017-03-01T10:44:56.952Z,305
2017-03-01T10:46:06.819Z,290
2017-03-01T10:47:17.089Z,320
2017-03-01T10:48:26.186Z,295
2017-03-01T10:49:35.294Z,260
2017-03-01T10:50:44.776Z,315
2017-03-01T10:51:54.248Z,440
2017-03-01T10:53:04.525Z,440
2017-03-01T10:54:13.996Z,505
2017-03-01T10:55:23.849Z,640
2017-03-01T10:56:34.079Z,720
2017-03-01T10:57:43.948Z,730
2017-03-01T10:58:53.801Z,640
2017-03-01T11:00:03.282Z,515
2017-03-01T11:01:12.760Z,625
2017-03-01T11:02:22.615Z,625
2017-03-01T11:03:31.323Z,690
2017-03-01T11:04:40.029Z,640
2017-03-01T11:05:49.134Z,600
2017-03-01T11:06:58.251Z,570
2017-03-01T11:08:08.153Z,585
2017-03-01T11:09:17.637Z,630
2017-03-01T11:10:27.109Z,715
2017-03-01T11:11:36.577Z,930
2017-03-01T11:12:46.809Z,930
2017-03-01T11:13:56.654Z,800
2017-03-01T11:15:06.898Z,760
2017-03-01T11:16:16.379Z,715
2017-03-01T11:17:25.501Z,630
2017-03-01T11:18:34.993Z,695
2017-03-01T11:19:44.478Z,655
2017-03-01T11:20:53.951Z,735
2017-03-01T11:22:03.039Z,750
2017-03-01T11:23:13.311Z,850
2017-03-01T11:24:22.016Z,790
2017-03-01T11:25:31.102Z,840
2017-03-01T11:26:41.758Z,825
2017-03-01T11:27:52.392Z,695
2017-03-01T11:29:01.879Z,645
2017-03-01T11:30:11.742Z,680
2017-03-01T11:31:20.832Z,660
2017-03-01T11:32:30.679Z,645
2017-03-01T11:33:41.323Z,585
2017-03-01T11:34:50.822Z,700
2017-03-01T11:36:00.285Z,845
2017-03-01T11:37:09.393Z,815
2017-03-01T11:38:20.007Z,700
2017-03-01T11:39:29.093Z,785
2017-03-01T11:40:38.562Z,835
2017-03-01T11:41:47.659Z,720
2017-03-01T11:42:56.798Z,675
2017-03-01T11:44:07.040Z,745
2017-03-01T11:45:16.143Z,680
2017-03-01T11:46:26.027Z,690
2017-03-01T11:47:35.133Z,655
2017-03-01T11:48:44.606Z,640
2017-03-01T11:49:53.708Z,715
2017-03-01T11:51:03.960Z,730
2017-03-01T11:52:13.474Z,685
2017-03-01T11:53:22.983Z,705
2017-03-01T11:54:32.847Z,780
2017-03-01T11:55:42.317Z,785
2017-03-01T11:56:52.575Z,795
2017-03-01T11:58:02.480Z,790
2017-03-01T11:59:11.952Z,800
2017-03-01T12:00:21.045Z,750
2017-03-01T12:01:30.929Z,770
2017-03-01T12:02:39.653Z,720
2017-03-01T12:03:49.103Z,655
2017-03-01T12:04:58.567Z,555
2017-03-01T12:06:08.049Z,580
2017-03-01T12:07:17.180Z,540
2017-03-01T12:08:27.034Z,525
2017-03-01T12:09:36.896Z,495
2017-03-01T12:10:46.755Z,550
2017-03-01T12:11:57.022Z,645
2017-03-01T12:13:07.284Z,650
2017-03-01T12:14:16.743Z,570
2017-03-01T12:15:27.017Z,495
2017-03-01T12:16:37.236Z,485
2017-03-01T12:17:47.119Z,530
2017-03-01T12:18:57.011Z,580
2017-03-01T12:20:05.739Z,610
2017-03-01T12:21:15.212Z,595
2017-03-01T12:22:25.057Z,660
2017-03-01T12:23:35.287Z,655
2017-03-01T12:24:45.131Z,625
2017-03-01T12:25:54.226Z,560
2017-03-01T12:27:03.718Z,560
2017-03-01T12:28:13.575Z,580
2017-03-01T12:29:23.062Z,570
2017-03-01T12:30:32.958Z,570
2017-03-01T12:31:42.427Z,605
2017-03-01T12:32:51.513Z,575
2017-03-01T12:34:01.381Z,595
2017-03-01T12:35:11.642Z,665
2017-03-01T12:36:21.520Z,630
2017-03-01T12:37:30.601Z,625
2017-03-01T12:38:40.074Z,720
2017-03-01T12:39:49.537Z,685
2017-03-01T12:40:59.410Z,590
2017-03-01T12:42:09.668Z,595
2017-03-01T12:43:18.791Z,590
2017-03-01T12:44:29.052Z,610
2017-03-01T12:45:38.531Z,680
2017-03-01T12:46:47.242Z,685
2017-03-01T12:47:57.125Z,640
2017-03-01T12:49:06.602Z,660
2017-03-01T12:50:17.233Z,745
2017-03-01T12:51:26.738Z,645
2017-03-01T12:52:35.829Z,605
2017-03-01T12:53:45.698Z,615
2017-03-01T12:54:54.791Z,640
2017-03-01T12:56:04.271Z,700
2017-03-01T12:57:14.128Z,765
2017-03-01T12:58:23.213Z,765
2017-03-01T12:59:33.091Z,615
2017-03-01T13:00:42.924Z,640
2017-03-01T13:01:51.643Z,675
2017-03-01T13:03:01.118Z,765
2017-03-01T13:04:10.979Z,820
2017-03-01T13:05:20.471Z,830
2017-03-01T13:06:29.568Z,770
2017-03-01T13:07:39.826Z,810
2017-03-01T13:08:48.948Z,815
2017-03-01T13:09:58.425Z,775
2017-03-01T13:11:07.528Z,760
2017-03-01T13:12:17.775Z,690
2017-03-01T13:13:27.263Z,710
2017-03-01T13:14:36.338Z,710
2017-03-01T13:15:46.601Z,665
2017-03-01T13:16:57.206Z,615
2017-03-01T13:18:06.665Z,620
2017-03-01T13:19:15.767Z,635
2017-03-01T13:20:26.028Z,660
2017-03-01T13:21:36.337Z,685
2017-03-01T13:22:45.447Z,640
2017-03-01T13:23:54.531Z,580
2017-03-01T13:25:03.614Z,600
2017-03-01T13:26:12.715Z,695
2017-03-01T13:27:22.974Z,680
2017-03-01T13:28:33.601Z,675
2017-03-01T13:29:43.496Z,675
2017-03-01T13:30:53.386Z,620
2017-03-01T13:32:02.478Z,645
2017-03-01T13:33:12.341Z,695
2017-03-01T13:34:22.187Z,665
2017-03-01T13:35:32.052Z,645
2017-03-01T13:36:41.530Z,560
2017-03-01T13:37:50.659Z,535
2017-03-01T13:39:00.136Z,530
2017-03-01T13:40:09.217Z,565
2017-03-01T13:41:19.841Z,615
2017-03-01T13:42:29.704Z,610
2017-03-01T13:43:39.184Z,610
2017-03-01T13:44:48.653Z,600
2017-03-01T13:45:58.151Z,555
2017-03-01T13:47:07.246Z,560
2017-03-01T13:48:17.117Z,615
2017-03-01T13:49:26.225Z,585
2017-03-01T13:50:36.103Z,545
2017-03-01T13:51:44.815Z,535
2017-03-01T13:52:54.335Z,560
2017-03-01T13:54:03.806Z,590
2017-03-01T13:55:12.515Z,565
2017-03-01T13:56:22.761Z,530
2017-03-01T13:57:31.469Z,505
2017-03-01T13:58:40.570Z,460
2017-03-01T13:59:50.424Z,440
2017-03-01T14:00:59.898Z,435
2017-03-01T14:02:10.128Z,435
2017-03-01T14:03:19.622Z,480
2017-03-01T14:04:28.730Z,520
2017-03-01T14:05:38.587Z,555
2017-03-01T14:06:48.460Z,555
2017-03-01T14:07:57.931Z,550
2017-03-01T14:09:08.177Z,545
2017-03-01T14:10:16.892Z,565
2017-03-01T14:11:26.373Z,600
2017-03-01T14:12:35.843Z,610
2017-03-01T14:13:45.340Z,605
2017-03-01T14:14:54.063Z,560
2017-03-01T14:16:03.935Z,545
2017-03-01T14:17:13.435Z,540
2017-03-01T14:18:23.292Z,525
2017-03-01T14:19:33.562Z,515
2017-03-01T14:20:43.066Z,500
2017-03-01T14:21:53.296Z,485
2017-03-01T14:23:02.780Z,480
2017-03-01T14:24:12.625Z,455
2017-03-01T14:25:21.701Z,445
2017-03-01T14:26:30.820Z,440
2017-03-01T14:27:40.673Z,410
2017-03-01T14:28:50.548Z,395
2017-03-01T14:29:59.635Z,380
2017-03-01T14:31:09.493Z,370
2017-03-01T14:32:18.587Z,370
2017-03-01T14:33:28.054Z,365
2017-03-01T14:34:37.142Z,365
2017-03-01T14:35:47.011Z,375
2017-03-01T14:36:56.486Z,390
2017-03-01T14:38:06.737Z,405
2017-03-01T14:39:16.206Z,425
2017-03-01T14:40:25.299Z,435
2017-03-01T14:41:35.165Z,435
2017-03-01T14:42:44.635Z,435
2017-03-01T14:43:54.108Z,445
2017-03-01T14:45:03.580Z,470
2017-03-01T14:46:13.090Z,470
2017-03-01T14:47:22.548Z,450
2017-03-01T14:48:32.040Z,435
2017-03-01T14:49:41.511Z,415
2017-03-01T14:50:50.621Z,400
2017-03-01T14:51:59.718Z,365
2017-03-01T14:53:09.188Z,310
2017-03-01T14:54:18.263Z,285
2017-03-01T14:55:27.740Z,285
2017-03-01T14:56:37.220Z,285
2017-03-01T14:57:47.070Z,265
2017-03-01T14:58:56.912Z,220
2017-03-01T15:00:07.161Z,185
2017-03-01T15:01:16.628Z,145
2017-03-01T15:02:26.520Z,135
2017-03-01T15:03:35.981Z,175
2017-03-01T15:04:45.833Z,200
2017-03-01T15:05:55.302Z,235
2017-03-01T15:07:04.769Z,270
2017-03-01T15:08:14.272Z,260
2017-03-01T15:09:24.143Z,245
2017-03-01T15:10:33.633Z,245
2017-03-01T15:11:43.488Z,225
2017-03-01T15:12:52.991Z,235
2017-03-01T15:14:02.463Z,300
2017-03-01T15:15:13.103Z,340
2017-03-01T15:16:22.613Z,375
2017-03-01T15:17:32.083Z,390
2017-03-01T15:18:42.316Z,380
2017-03-01T15:19:52.561Z,370
2017-03-01T15:21:02.044Z,360
2017-03-01T15:22:11.142Z,380
2017-03-01T15:23:20.619Z,360
2017-03-01T15:24:30.185Z,375
2017-03-01T15:25:39.688Z,380
2017-03-01T15:26:49.563Z,375
2017-03-01T15:27:59.044Z,370
2017-03-01T15:29:08.152Z,360
2017-03-01T15:30:17.267Z,350
2017-03-01T15:31:26.730Z,340
2017-03-01T15:32:36.971Z,320
2017-03-01T15:33:46.458Z,300
2017-03-01T15:34:55.161Z,290
2017-03-01T15:36:04.672Z,280
2017-03-01T15:37:14.165Z,285
2017-03-01T15:38:23.665Z,280
2017-03-01T15:39:33.176Z,290
2017-03-01T15:40:41.885Z,305
2017-03-01T15:41:50.979Z,310
2017-03-01T15:43:00.082Z,315
2017-03-01T15:44:09.171Z,310
2017-03-01T15:45:18.254Z,300
2017-03-01T15:46:27.341Z,285
2017-03-01T15:47:36.434Z,275
2017-03-01T15:48:45.924Z,260
2017-03-01T15:49:56.200Z,255
2017-03-01T15:51:06.049Z,245
2017-03-01T15:52:15.913Z,240
2017-03-01T15:53:25.370Z,235
2017-03-01T15:54:35.240Z,225
2017-03-01T15:55:44.322Z,220
2017-03-01T15:56:54.179Z,215
2017-03-01T15:58:04.043Z,205
2017-03-01T15:59:13.524Z,195
2017-03-01T16:00:22.618Z,180
2017-03-01T16:01:32.474Z,175
2017-03-01T16:02:42.331Z,170
2017-03-01T16:03:51.833Z,175
2017-03-01T16:05:00.917Z,175
2017-03-01T16:06:11.168Z,170
2017-03-01T16:07:20.288Z,170
2017-03-01T16:08:30.152Z,175
2017-03-01T16:09:39.254Z,170
2017-03-01T16:10:48.729Z,165
2017-03-01T16:11:58.217Z,150
2017-03-01T16:13:08.067Z,140
2017-03-01T16:14:17.562Z,135
2017-03-01T16:15:26.265Z,130
2017-03-01T16:16:36.135Z,120
2017-03-01T16:17:45.613Z,115
2017-03-01T16:18:54.709Z,95
2017-03-01T16:20:04.207Z,90
2017-03-01T16:21:14.070Z,100
2017-03-01T16:22:23.147Z,110
2017-03-01T16:23:33.385Z,120
2017-03-01T16:24:43.652Z,130